createdAt,value
2019-03-16T00:00:54.358Z,70.19
2019-03-16T00:07:02.537Z,70.32
2019-03-16T00:13:15.956Z,70.90
2019-03-16T00:19:26.072Z,71.24
2019-03-16T00:25:34.714Z,70.97
2019-03-16T00:31:42.757Z,70.89
2019-03-16T00:37:54.205Z,70.83
2019-03-16T00:43:58.178Z,70.54
2019-03-16T00:50:04.431Z,70.80
2019-03-16T00:56:09.060Z,70.47
2019-03-16T01:02:26.649Z,70.93
2019-03-16T01:08:25.057Z,71.04
2019-03-16T01:14:34.614Z,71.45
2019-03-16T01:20:46.174Z,71.45
2019-03-16T01:26:52.078Z,71.24
2019-03-16T01:33:00.269Z,71.84
2019-03-16T01:39:26.027Z,72.02
2019-03-16T01:45:34.970Z,73.12
2019-03-16T01:51:47.023Z,73.10
2019-03-16T01:57:58.428Z,73.22
2019-03-16T02:10:27.812Z,72.86
2019-03-16T02:16:37.288Z,73.14
2019-03-16T02:22:49.938Z,73.06
2019-03-16T02:29:02.743Z,72.84
2019-03-16T02:35:11.710Z,72.82
2019-03-16T02:41:20.664Z,72.77
2019-03-16T02:47:45.045Z,73.14
2019-03-16T02:53:55.189Z,72.99
2019-03-16T03:00:06.262Z,71.73
2019-03-16T03:06:24.659Z,71.32
2019-03-16T03:12:39.232Z,70.97
2019-03-16T03:18:52.458Z,70.28
2019-03-16T03:24:57.269Z,69.87
2019-03-16T03:31:12.129Z,69.85
2019-03-16T03:37:20.942Z,68.82
2019-03-16T03:43:25.150Z,68.68
2019-03-16T03:49:32.662Z,68.88
2019-03-16T03:55:39.755Z,69.10
2019-03-16T04:01:44.542Z,69.61
2019-03-16T04:07:49.357Z,69.88
2019-03-16T04:13:54.148Z,70.20
2019-03-16T04:20:03.334Z,69.49
2019-03-16T04:26:14.276Z,70.00
2019-03-16T04:32:28.537Z,70.14
2019-03-16T04:38:29.858Z,70.11
2019-03-16T04:44:34.504Z,70.40
2019-03-16T04:50:39.270Z,69.97
2019-03-16T04:56:46.958Z,69.58
2019-03-16T05:03:00.540Z,70.19
2019-03-16T05:09:12.040Z,69.42
2019-03-16T05:15:34.886Z,70.61
2019-03-16T05:21:40.679Z,69.95
2019-03-16T05:27:48.990Z,69.92
2019-03-16T05:34:01.875Z,69.63
2019-03-16T05:40:16.300Z,69.26
2019-03-16T05:46:32.238Z,69.74
2019-03-16T05:52:43.309Z,71.30
2019-03-16T05:59:13.916Z,69.93
2019-03-16T06:05:24.585Z,68.78
2019-03-16T06:11:41.150Z,70.50
2019-03-16T06:17:46.580Z,71.15
2019-03-16T06:23:52.734Z,72.43
2019-03-16T06:29:59.694Z,75.66
2019-03-16T06:36:05.760Z,78.86
2019-03-16T06:42:10.583Z,80.26
2019-03-16T06:48:18.176Z,80.90
2019-03-16T06:54:23.162Z,82.22
2019-03-16T07:00:29.688Z,83.25
2019-03-16T07:06:36.203Z,83.35
2019-03-16T07:12:48.525Z,83.55
2019-03-16T07:18:59.025Z,83.90
2019-03-16T07:25:07.771Z,84.28
2019-03-16T07:31:14.018Z,84.65
2019-03-16T07:37:24.676Z,84.91
2019-03-16T07:43:29.376Z,86.09
2019-03-16T07:49:38.799Z,86.18
2019-03-16T07:55:44.077Z,86.34
2019-03-16T08:01:48.843Z,86.51
2019-03-16T08:07:54.719Z,86.55
2019-03-16T08:14:03.208Z,86.15
2019-03-16T08:20:09.440Z,87.33
2019-03-16T08:26:14.179Z,86.98
2019-03-16T08:32:20.633Z,86.17
2019-03-16T08:38:25.649Z,85.71
2019-03-16T08:44:31.940Z,85.20
2019-03-16T08:50:46.219Z,85.29
2019-03-16T08:56:55.727Z,84.13
2019-03-16T09:03:03.607Z,83.12
2019-03-16T09:09:10.011Z,81.93
2019-03-16T09:15:18.452Z,81.68
2019-03-16T09:21:29.325Z,81.25
2019-03-16T09:27:32.323Z,82.36
2019-03-16T09:33:41.253Z,83.71
2019-03-16T09:39:47.114Z,84.04
2019-03-16T09:45:53.286Z,84.37
2019-03-16T09:51:58.172Z,84.26
2019-03-16T09:58:03.044Z,84.06
2019-03-16T10:04:10.969Z,84.27
2019-03-16T10:10:18.207Z,85.19
2019-03-16T10:16:22.775Z,84.19
2019-03-16T10:22:29.341Z,86.24
2019-03-16T10:28:43.193Z,87.24
2019-03-16T10:35:05.618Z,86.50
2019-03-16T10:41:09.141Z,87.68
2019-03-16T10:47:23.207Z,88.19
2019-03-16T10:53:35.652Z,88.59
2019-03-16T11:00:08.325Z,89.12
2019-03-16T11:06:01.374Z,89.68
2019-03-16T11:12:09.534Z,89.23
2019-03-16T11:18:19.049Z,90.07
2019-03-16T11:25:40.985Z,90.40
2019-03-16T11:37:20.289Z,91.02
2019-03-16T11:43:24.846Z,90.54
2019-03-16T11:49:29.401Z,92.20
2019-03-16T11:55:33.965Z,92.17
2019-03-16T12:01:38.508Z,93.63
2019-03-16T12:07:43.066Z,94.16
2019-03-16T12:13:47.598Z,94.63
2019-03-16T12:19:52.185Z,95.21
2019-03-16T12:25:56.747Z,94.28
2019-03-16T12:32:01.323Z,95.19
2019-03-16T12:38:06.102Z,94.60
2019-03-16T12:44:10.664Z,94.52
2019-03-16T12:50:15.627Z,94.31
2019-03-16T12:56:20.257Z,93.96
2019-03-16T13:02:24.809Z,94.67
2019-03-16T13:08:29.386Z,94.25
2019-03-16T13:14:33.950Z,91.91
2019-03-16T13:20:38.521Z,90.80
2019-03-16T13:26:43.094Z,92.59
2019-03-16T13:32:47.800Z,93.40
2019-03-16T13:38:52.366Z,93.69
2019-03-16T13:44:56.912Z,93.63
2019-03-16T13:51:01.491Z,90.94
2019-03-16T13:57:06.238Z,89.71
2019-03-16T14:03:10.808Z,87.95
2019-03-16T14:09:15.398Z,87.45
2019-03-16T14:15:19.946Z,87.38
2019-03-16T14:21:24.518Z,88.95
2019-03-16T14:27:29.074Z,88.19
2019-03-16T14:33:33.721Z,88.56
2019-03-16T14:39:38.655Z,87.77
2019-03-16T14:45:43.559Z,87.75
2019-03-16T14:51:48.113Z,84.57
2019-03-16T14:57:52.769Z,84.40
2019-03-16T15:03:57.399Z,83.82
2019-03-16T15:10:06.926Z,83.91
2019-03-16T15:16:11.560Z,82.74
2019-03-16T15:22:16.121Z,82.73
2019-03-16T15:28:20.689Z,82.59
2019-03-16T15:34:25.429Z,82.75
2019-03-16T15:40:29.989Z,81.70
2019-03-16T15:46:34.633Z,80.80
2019-03-16T15:52:39.274Z,81.49
2019-03-16T15:58:43.855Z,79.82
2019-03-16T16:04:48.433Z,80.29
2019-03-16T16:11:00.944Z,81.69
2019-03-16T16:16:59.296Z,84.66
2019-03-16T16:23:03.933Z,85.67
2019-03-16T16:29:08.490Z,86.91
2019-03-16T16:35:17.083Z,89.09
2019-03-16T16:41:21.706Z,92.34
2019-03-16T16:47:26.274Z,94.68
2019-03-16T16:53:30.813Z,93.90
2019-03-16T16:59:35.370Z,91.72
2019-03-16T17:05:43.135Z,89.50
2019-03-16T17:11:46.208Z,85.72
2019-03-16T17:17:50.757Z,81.90
2019-03-16T17:23:55.346Z,80.33
2019-03-16T17:29:59.952Z,81.20
2019-03-16T17:36:04.679Z,83.75
2019-03-16T17:42:09.259Z,84.75
2019-03-16T17:48:13.807Z,82.51
2019-03-16T17:54:18.385Z,81.33
2019-03-16T18:00:22.954Z,79.79
2019-03-16T18:06:27.609Z,79.05
2019-03-16T18:12:32.236Z,79.13
2019-03-16T18:18:36.816Z,77.99
2019-03-16T18:24:41.455Z,77.78
2019-03-16T18:30:46.016Z,77.61
2019-03-16T18:36:50.668Z,76.81
2019-03-16T18:42:55.347Z,75.43
2019-03-16T18:49:00.006Z,76.42
2019-03-16T18:55:06.912Z,75.94
2019-03-16T19:01:11.479Z,75.28
2019-03-16T19:07:16.122Z,75.26
2019-03-16T19:13:20.838Z,75.74
2019-03-16T19:19:25.555Z,75.81
2019-03-16T19:25:30.125Z,75.68
2019-03-16T19:31:34.700Z,76.78
2019-03-16T19:37:39.257Z,76.14
2019-03-16T19:43:43.857Z,76.18
2019-03-16T19:49:48.407Z,76.42
2019-03-16T19:55:52.971Z,76.37
2019-03-16T20:01:57.521Z,75.82
2019-03-16T20:08:02.159Z,76.44
2019-03-16T20:14:06.794Z,77.29
2019-03-16T20:20:14.532Z,76.99
2019-03-16T20:26:19.101Z,76.79
2019-03-16T20:32:23.666Z,76.99
2019-03-16T20:38:28.283Z,77.15
2019-03-16T20:44:32.919Z,76.28
2019-03-16T20:50:37.477Z,76.51
2019-03-16T20:56:42.137Z,75.95
2019-03-16T21:02:47.152Z,76.21
2019-03-16T21:09:02.529Z,75.96
2019-03-16T21:14:58.161Z,76.20
2019-03-16T21:21:02.767Z,76.71
2019-03-16T21:27:07.339Z,76.17
2019-03-16T21:33:11.970Z,74.96
2019-03-16T21:39:17.096Z,75.00
2019-03-16T21:45:21.956Z,74.00
2019-03-16T21:51:26.552Z,74.38
2019-03-16T21:57:31.331Z,73.18
2019-03-16T22:03:41.921Z,73.27
2019-03-16T22:09:42.288Z,73.49
2019-03-16T22:15:46.838Z,71.86
2019-03-16T22:21:51.470Z,72.79
2019-03-16T22:27:56.028Z,72.55
2019-03-16T22:34:00.948Z,72.06
2019-03-16T22:40:11.966Z,71.05
2019-03-16T22:46:16.623Z,71.70
2019-03-16T22:52:21.240Z,71.16
2019-03-16T22:58:25.902Z,71.39
2019-03-16T23:04:30.615Z,70.66
2019-03-16T23:10:35.304Z,71.35
2019-03-16T23:16:39.901Z,71.33
2019-03-16T23:22:44.581Z,71.53
2019-03-16T23:28:49.128Z,71.07
2019-03-16T23:34:53.772Z,70.76
2019-03-16T23:40:58.408Z,72.11
2019-03-16T23:47:03.119Z,71.95
2019-03-16T23:53:07.750Z,70.95
2019-03-16T23:59:12.303Z,71.87
